KLGU/LGU METAR and TAF weather

Enter ICAO airport designator
Station Type Date Time Source
KLGU METAR 2019/10/22 16:51 UTC NOAA

KLGU 221651Z AUTO 05005KT 10SM OVC048 09/02 A3033 RMK AO2 SLP263 T00940022 $


Station Type Date Time Source
KLGU Decoded METAR 2019/10/22 16:51 UTC NOAA

LOGAN CACHE AIRPORT, UT, United States (KLGU) 41-47N 111-51W 1355M
Oct 22, 2019 - 12:51 PM EDT / 2019.10.22 1651 UTC
Wind: from the NE (050 degrees) at 6 MPH (5 KT):0
Visibility: 10 mile(s):0
Sky conditions: overcast
Temperature: 48.9 F (9.4 C)
Dew Point: 36.0 F (2.2 C)
Relative Humidity: 60%
Pressure (altimeter): 30.33 in. Hg (1027 hPa)
ob: KLGU 221651Z AUTO 05005KT 10SM OVC048 09/02 A3033 RMK AO2 SLP263 T00940022
cycle: 17

Station Type Date Time Source
KLGU TAF 2019/10/22 12:22 UTC NOAA

TAF KLGU 221120Z 2212/2312 15004KT P6SM OVC045
FM221300 17007KT P6SM BKN050 BKN100
FM221700 35010KT P6SM SCT070 OVC090
FM230300 17007KT P6SM SCT050 BKN070

Example: see airport list